sensor_id;sensor_type;location;lat;lon;timestamp;P1;durP1;ratioP1;P2;durP2;ratioP2
10586;SDS011;5341;47.606;7.576;2022-07-23T00:00:27;8.68;;;6.25;;
10586;SDS011;5341;47.606;7.576;2022-07-23T00:02:54;7.22;;;5.93;;
10586;SDS011;5341;47.606;7.576;2022-07-23T00:05:23;8.00;;;6.57;;
10586;SDS011;5341;47.606;7.576;2022-07-23T00:07:50;9.35;;;6.32;;
10586;SDS011;5341;47.606;7.576;2022-07-23T00:10:18;6.90;;;6.20;;
10586;SDS011;5341;47.606;7.576;2022-07-23T00:12:46;7.30;;;6.60;;
10586;SDS011;5341;47.606;7.576;2022-07-23T00:15:13;7.18;;;6.47;;
10586;SDS011;5341;47.606;7.576;2022-07-23T00:17:41;6.35;;;5.75;;
10586;SDS011;5341;47.606;7.576;2022-07-23T00:20:08;6.55;;;5.95;;
10586;SDS011;5341;47.606;7.576;2022-07-23T00:22:37;7.00;;;5.88;;
10586;SDS011;5341;47.606;7.576;2022-07-23T00:25:12;14.73;;;6.25;;
10586;SDS011;5341;47.606;7.576;2022-07-23T00:27:40;6.00;;;5.45;;
10586;SDS011;5341;47.606;7.576;2022-07-23T00:30:08;7.30;;;6.60;;
10586;SDS011;5341;47.606;7.576;2022-07-23T00:32:44;6.55;;;5.82;;
10586;SDS011;5341;47.606;7.576;2022-07-23T00:35:13;6.05;;;5.50;;
10586;SDS011;5341;47.606;7.576;2022-07-23T00:37:42;6.25;;;5.65;;
10586;SDS011;5341;47.606;7.576;2022-07-23T00:40:10;6.30;;;5.75;;
10586;SDS011;5341;47.606;7.576;2022-07-23T00:42:39;6.32;;;5.72;;
10586;SDS011;5341;47.606;7.576;2022-07-23T00:45:07;6.40;;;5.80;;
10586;SDS011;5341;47.606;7.576;2022-07-23T00:47:35;7.85;;;5.68;;
10586;SDS011;5341;47.606;7.576;2022-07-23T00:50:04;5.43;;;4.93;;
10586;SDS011;5341;47.606;7.576;2022-07-23T00:52:33;6.88;;;6.13;;
10586;SDS011;5341;47.606;7.576;2022-07-23T00:55:04;6.28;;;5.68;;
10586;SDS011;5341;47.606;7.576;2022-07-23T00:57:32;6.00;;;5.40;;
10586;SDS011;5341;47.606;7.576;2022-07-23T01:00:00;6.57;;;5.30;;
10586;SDS011;5341;47.606;7.576;2022-07-23T01:02:28;6.75;;;6.10;;
10586;SDS011;5341;47.606;7.576;2022-07-23T01:04:55;6.68;;;6.07;;
10586;SDS011;5341;47.606;7.576;2022-07-23T01:07:23;6.53;;;5.78;;
10586;SDS011;5341;47.606;7.576;2022-07-23T01:09:51;5.82;;;5.30;;
10586;SDS011;5341;47.606;7.576;2022-07-23T01:12:20;6.22;;;5.63;;
10586;SDS011;5341;47.606;7.576;2022-07-23T01:14:53;6.47;;;5.88;;
10586;SDS011;5341;47.606;7.576;2022-07-23T01:17:21;8.00;;;5.95;;
10586;SDS011;5341;47.606;7.576;2022-07-23T01:19:48;6.13;;;5.63;;
10586;SDS011;5341;47.606;7.576;2022-07-23T01:22:17;7.45;;;6.65;;
10586;SDS011;5341;47.606;7.576;2022-07-23T01:24:47;6.20;;;5.60;;
10586;SDS011;5341;47.606;7.576;2022-07-23T01:27:20;7.55;;;6.38;;
10586;SDS011;5341;47.606;7.576;2022-07-23T01:29:50;7.85;;;6.85;;
10586;SDS011;5341;47.606;7.576;2022-07-23T01:32:19;7.63;;;6.93;;
10586;SDS011;5341;47.606;7.576;2022-07-23T01:34:47;8.82;;;7.00;;
10586;SDS011;5341;47.606;7.576;2022-07-23T01:37:15;8.43;;;7.00;;
10586;SDS011;5341;47.606;7.576;2022-07-23T01:39:44;7.57;;;6.78;;
10586;SDS011;5341;47.606;7.576;2022-07-23T01:42:13;7.20;;;6.50;;
10586;SDS011;5341;47.606;7.576;2022-07-23T01:44:41;6.82;;;6.10;;
10586;SDS011;5341;47.606;7.576;2022-07-23T01:47:16;7.10;;;6.40;;
10586;SDS011;5341;47.606;7.576;2022-07-23T01:49:43;10.40;;;6.57;;
10586;SDS011;5341;47.606;7.576;2022-07-23T01:52:29;8.20;;;6.90;;
10586;SDS011;5341;47.606;7.576;2022-07-23T01:54:57;7.40;;;6.53;;
10586;SDS011;5341;47.606;7.576;2022-07-23T01:57:26;7.18;;;6.50;;
10586;SDS011;5341;47.606;7.576;2022-07-23T01:59:54;7.30;;;6.60;;
10586;SDS011;5341;47.606;7.576;2022-07-23T02:02:22;9.57;;;7.35;;
10586;SDS011;5341;47.606;7.576;2022-07-23T02:04:49;7.07;;;6.40;;
10586;SDS011;5341;47.606;7.576;2022-07-23T02:07:19;7.18;;;6.50;;
10586;SDS011;5341;47.606;7.576;2022-07-23T02:09:46;7.60;;;6.40;;
10586;SDS011;5341;47.606;7.576;2022-07-23T02:12:13;7.07;;;6.38;;
10586;SDS011;5341;47.606;7.576;2022-07-23T02:14:45;7.25;;;6.43;;
10586;SDS011;5341;47.606;7.576;2022-07-23T02:17:13;6.95;;;6.25;;
10586;SDS011;5341;47.606;7.576;2022-07-23T02:19:40;7.07;;;6.38;;
10586;SDS011;5341;47.606;7.576;2022-07-23T02:22:08;7.30;;;6.57;;
10586;SDS011;5341;47.606;7.576;2022-07-23T02:24:35;7.28;;;6.40;;
10586;SDS011;5341;47.606;7.576;2022-07-23T02:27:03;7.10;;;6.40;;
10586;SDS011;5341;47.606;7.576;2022-07-23T02:29:31;7.03;;;6.32;;
10586;SDS011;5341;47.606;7.576;2022-07-23T02:32:00;7.18;;;6.47;;
10586;SDS011;5341;47.606;7.576;2022-07-23T02:34:28;7.97;;;7.25;;
10586;SDS011;5341;47.606;7.576;2022-07-23T02:36:55;8.13;;;6.28;;
10586;SDS011;5341;47.606;7.576;2022-07-23T02:39:25;7.80;;;6.68;;
10586;SDS011;5341;47.606;7.576;2022-07-23T02:41:52;7.03;;;6.30;;
10586;SDS011;5341;47.606;7.576;2022-07-23T02:44:20;8.48;;;6.20;;
10586;SDS011;5341;47.606;7.576;2022-07-23T02:46:51;8.20;;;6.35;;
10586;SDS011;5341;47.606;7.576;2022-07-23T02:49:20;6.60;;;6.00;;
10586;SDS011;5341;47.606;7.576;2022-07-23T02:51:49;7.10;;;6.40;;
10586;SDS011;5341;47.606;7.576;2022-07-23T02:54:17;8.55;;;6.60;;
10586;SDS011;5341;47.606;7.576;2022-07-23T02:56:44;9.15;;;6.28;;
10586;SDS011;5341;47.606;7.576;2022-07-23T02:59:12;7.38;;;6.68;;
10586;SDS011;5341;47.606;7.576;2022-07-23T03:01:39;9.18;;;6.80;;
10586;SDS011;5341;47.606;7.576;2022-07-23T03:04:07;10.98;;;6.93;;
10586;SDS011;5341;47.606;7.576;2022-07-23T03:06:36;7.80;;;6.45;;
10586;SDS011;5341;47.606;7.576;2022-07-23T03:09:04;7.88;;;6.53;;
10586;SDS011;5341;47.606;7.576;2022-07-23T03:11:32;9.05;;;6.93;;
10586;SDS011;5341;47.606;7.576;2022-07-23T03:13:59;7.03;;;6.32;;
10586;SDS011;5341;47.606;7.576;2022-07-23T03:16:27;7.45;;;6.50;;
10586;SDS011;5341;47.606;7.576;2022-07-23T03:18:54;7.50;;;6.22;;
10586;SDS011;5341;47.606;7.576;2022-07-23T03:21:22;7.72;;;6.75;;
10586;SDS011;5341;47.606;7.576;2022-07-23T03:23:53;6.53;;;5.93;;
10586;SDS011;5341;47.606;7.576;2022-07-23T03:26:22;7.90;;;7.10;;
10586;SDS011;5341;47.606;7.576;2022-07-23T03:28:51;6.90;;;6.20;;
10586;SDS011;5341;47.606;7.576;2022-07-23T03:31:19;6.80;;;6.10;;
10586;SDS011;5341;47.606;7.576;2022-07-23T03:33:46;8.48;;;6.32;;
10586;SDS011;5341;47.606;7.576;2022-07-23T03:36:14;9.23;;;6.28;;
10586;SDS011;5341;47.606;7.576;2022-07-23T03:38:44;7.35;;;6.63;;
10586;SDS011;5341;47.606;7.576;2022-07-23T03:41:13;7.30;;;6.38;;
10586;SDS011;5341;47.606;7.576;2022-07-23T03:43:41;9.65;;;6.78;;
10586;SDS011;5341;47.606;7.576;2022-07-23T03:46:10;7.10;;;6.20;;
10586;SDS011;5341;47.606;7.576;2022-07-23T03:48:38;6.57;;;5.88;;
10586;SDS011;5341;47.606;7.576;2022-07-23T03:51:05;7.10;;;6.40;;
10586;SDS011;5341;47.606;7.576;2022-07-23T03:53:33;7.13;;;5.88;;
10586;SDS011;5341;47.606;7.576;2022-07-23T03:56:00;7.20;;;6.05;;
10586;SDS011;5341;47.606;7.576;2022-07-23T03:58:30;7.05;;;6.22;;
10586;SDS011;5341;47.606;7.576;2022-07-23T04:00:58;7.00;;;6.18;;
10586;SDS011;5341;47.606;7.576;2022-07-23T04:03:26;7.47;;;5.90;;
10586;SDS011;5341;47.606;7.576;2022-07-23T04:05:53;6.63;;;5.88;;
10586;SDS011;5341;47.606;7.576;2022-07-23T04:08:21;6.28;;;5.68;;
10586;SDS011;5341;47.606;7.576;2022-07-23T04:10:51;6.65;;;5.88;;
10586;SDS011;5341;47.606;7.576;2022-07-23T04:13:21;6.57;;;5.70;;
10586;SDS011;5341;47.606;7.576;2022-07-23T04:15:50;6.68;;;5.63;;
10586;SDS011;5341;47.606;7.576;2022-07-23T04:18:18;5.78;;;5.28;;
10586;SDS011;5341;47.606;7.576;2022-07-23T04:20:57;6.47;;;5.88;;
10586;SDS011;5341;47.606;7.576;2022-07-23T04:23:25;6.28;;;5.68;;
10586;SDS011;5341;47.606;7.576;2022-07-23T04:25:52;6.57;;;5.90;;
10586;SDS011;5341;47.606;7.576;2022-07-23T04:28:20;6.63;;;5.93;;
10586;SDS011;5341;47.606;7.576;2022-07-23T04:30:50;6.50;;;5.90;;
10586;SDS011;5341;47.606;7.576;2022-07-23T04:33:20;6.40;;;5.80;;
10586;SDS011;5341;47.606;7.576;2022-07-23T04:35:49;8.15;;;6.07;;
10586;SDS011;5341;47.606;7.576;2022-07-23T04:38:20;6.57;;;5.95;;
10586;SDS011;5341;47.606;7.576;2022-07-23T04:40:50;5.95;;;5.35;;
10586;SDS011;5341;47.606;7.576;2022-07-23T04:43:18;6.68;;;5.97;;
10586;SDS011;5341;47.606;7.576;2022-07-23T04:45:50;6.78;;;5.70;;
10586;SDS011;5341;47.606;7.576;2022-07-23T04:48:18;6.80;;;6.20;;
10586;SDS011;5341;47.606;7.576;2022-07-23T04:50:47;6.25;;;5.68;;
10586;SDS011;5341;47.606;7.576;2022-07-23T04:53:21;7.20;;;6.07;;
10586;SDS011;5341;47.606;7.576;2022-07-23T04:55:52;6.63;;;6.03;;
10586;SDS011;5341;47.606;7.576;2022-07-23T04:58:20;6.30;;;5.68;;
10586;SDS011;5341;47.606;7.576;2022-07-23T05:00:49;6.05;;;5.50;;
10586;SDS011;5341;47.606;7.576;2022-07-23T05:03:17;6.63;;;5.93;;
10586;SDS011;5341;47.606;7.576;2022-07-23T05:05:46;7.55;;;5.95;;
10586;SDS011;5341;47.606;7.576;2022-07-23T05:08:16;7.38;;;5.60;;
10586;SDS011;5341;47.606;7.576;2022-07-23T05:10:49;6.55;;;5.88;;
10586;SDS011;5341;47.606;7.576;2022-07-23T05:13:18;5.95;;;5.35;;
10586;SDS011;5341;47.606;7.576;2022-07-23T05:15:45;8.32;;;5.65;;
10586;SDS011;5341;47.606;7.576;2022-07-23T05:18:14;7.15;;;6.20;;
10586;SDS011;5341;47.606;7.576;2022-07-23T05:20:42;7.43;;;5.50;;
10586;SDS011;5341;47.606;7.576;2022-07-23T05:23:13;6.60;;;6.00;;
10586;SDS011;5341;47.606;7.576;2022-07-23T05:25:41;6.60;;;5.75;;
10586;SDS011;5341;47.606;7.576;2022-07-23T05:28:09;6.60;;;6.00;;
10586;SDS011;5341;47.606;7.576;2022-07-23T05:30:37;6.82;;;6.13;;
10586;SDS011;5341;47.606;7.576;2022-07-23T05:33:07;6.22;;;5.50;;
10586;SDS011;5341;47.606;7.576;2022-07-23T05:35:37;9.48;;;6.13;;
10586;SDS011;5341;47.606;7.576;2022-07-23T05:38:21;7.03;;;5.80;;
10586;SDS011;5341;47.606;7.576;2022-07-23T05:40:49;6.97;;;5.75;;
10586;SDS011;5341;47.606;7.576;2022-07-23T05:43:17;6.40;;;5.40;;
10586;SDS011;5341;47.606;7.576;2022-07-23T05:45:45;6.40;;;5.78;;
10586;SDS011;5341;47.606;7.576;2022-07-23T05:48:14;6.70;;;5.65;;
10586;SDS011;5341;47.606;7.576;2022-07-23T05:50:55;5.97;;;5.38;;
10586;SDS011;5341;47.606;7.576;2022-07-23T05:53:31;5.95;;;4.93;;
10586;SDS011;5341;47.606;7.576;2022-07-23T05:56:19;6.55;;;5.70;;
10586;SDS011;5341;47.606;7.576;2022-07-23T05:58:46;6.05;;;5.45;;
10586;SDS011;5341;47.606;7.576;2022-07-23T06:01:16;6.07;;;5.40;;
10586;SDS011;5341;47.606;7.576;2022-07-23T06:03:54;6.18;;;5.50;;
10586;SDS011;5341;47.606;7.576;2022-07-23T06:06:29;6.60;;;5.85;;
10586;SDS011;5341;47.606;7.576;2022-07-23T06:08:57;5.93;;;5.35;;
10586;SDS011;5341;47.606;7.576;2022-07-23T06:11:24;6.60;;;6.00;;
10586;SDS011;5341;47.606;7.576;2022-07-23T06:13:52;6.40;;;5.68;;
10586;SDS011;5341;47.606;7.576;2022-07-23T06:16:23;6.40;;;5.82;;
10586;SDS011;5341;47.606;7.576;2022-07-23T06:18:51;8.85;;;6.05;;
10586;SDS011;5341;47.606;7.576;2022-07-23T06:21:19;6.18;;;5.57;;
10586;SDS011;5341;47.606;7.576;2022-07-23T06:23:48;6.70;;;5.90;;
10586;SDS011;5341;47.606;7.576;2022-07-23T06:26:15;5.97;;;5.43;;
10586;SDS011;5341;47.606;7.576;2022-07-23T06:28:43;6.50;;;5.78;;
10586;SDS011;5341;47.606;7.576;2022-07-23T06:31:12;6.90;;;6.20;;
10586;SDS011;5341;47.606;7.576;2022-07-23T06:33:39;6.63;;;6.03;;
10586;SDS011;5341;47.606;7.576;2022-07-23T06:36:07;7.30;;;5.95;;
10586;SDS011;5341;47.606;7.576;2022-07-23T06:38:34;7.05;;;6.35;;
10586;SDS011;5341;47.606;7.576;2022-07-23T06:41:03;7.93;;;6.07;;
10586;SDS011;5341;47.606;7.576;2022-07-23T06:43:31;7.47;;;6.30;;
10586;SDS011;5341;47.606;7.576;2022-07-23T06:45:59;6.43;;;5.80;;
10586;SDS011;5341;47.606;7.576;2022-07-23T06:48:26;6.90;;;6.10;;
10586;SDS011;5341;47.606;7.576;2022-07-23T06:50:54;6.78;;;6.18;;
10586;SDS011;5341;47.606;7.576;2022-07-23T06:53:23;7.13;;;6.43;;
10586;SDS011;5341;47.606;7.576;2022-07-23T06:55:51;9.02;;;6.50;;
10586;SDS011;5341;47.606;7.576;2022-07-23T06:58:20;7.18;;;6.43;;
10586;SDS011;5341;47.606;7.576;2022-07-23T07:00:47;8.43;;;6.22;;
10586;SDS011;5341;47.606;7.576;2022-07-23T07:03:16;6.53;;;5.93;;
10586;SDS011;5341;47.606;7.576;2022-07-23T07:05:44;6.88;;;6.18;;
10586;SDS011;5341;47.606;7.576;2022-07-23T07:08:11;8.73;;;6.53;;
10586;SDS011;5341;47.606;7.576;2022-07-23T07:10:39;9.80;;;6.22;;
10586;SDS011;5341;47.606;7.576;2022-07-23T07:13:06;7.25;;;5.95;;
10586;SDS011;5341;47.606;7.576;2022-07-23T07:15:35;6.55;;;5.95;;
10586;SDS011;5341;47.606;7.576;2022-07-23T07:18:03;7.60;;;6.57;;
10586;SDS011;5341;47.606;7.576;2022-07-23T07:20:31;7.57;;;6.45;;
10586;SDS011;5341;47.606;7.576;2022-07-23T07:22:59;7.72;;;6.68;;
10586;SDS011;5341;47.606;7.576;2022-07-23T07:25:28;9.30;;;6.47;;
10586;SDS011;5341;47.606;7.576;2022-07-23T07:27:56;8.35;;;6.53;;
10586;SDS011;5341;47.606;7.576;2022-07-23T07:30:24;8.35;;;6.13;;
10586;SDS011;5341;47.606;7.576;2022-07-23T07:32:53;7.82;;;6.63;;
10586;SDS011;5341;47.606;7.576;2022-07-23T07:35:22;7.32;;;6.10;;
10586;SDS011;5341;47.606;7.576;2022-07-23T07:37:51;7.63;;;6.80;;
10586;SDS011;5341;47.606;7.576;2022-07-23T07:40:19;7.78;;;7.05;;
10586;SDS011;5341;47.606;7.576;2022-07-23T07:42:47;8.07;;;6.53;;
10586;SDS011;5341;47.606;7.576;2022-07-23T07:45:17;7.63;;;6.85;;
10586;SDS011;5341;47.606;7.576;2022-07-23T07:47:50;7.75;;;6.95;;
10586;SDS011;5341;47.606;7.576;2022-07-23T07:50:21;7.15;;;6.45;;
10586;SDS011;5341;47.606;7.576;2022-07-23T07:52:49;6.80;;;6.10;;
10586;SDS011;5341;47.606;7.576;2022-07-23T07:55:18;7.60;;;6.80;;
10586;SDS011;5341;47.606;7.576;2022-07-23T07:57:46;7.38;;;6.63;;
10586;SDS011;5341;47.606;7.576;2022-07-23T08:00:13;7.25;;;6.43;;
10586;SDS011;5341;47.606;7.576;2022-07-23T08:02:42;8.30;;;6.60;;
10586;SDS011;5341;47.606;7.576;2022-07-23T08:05:13;8.23;;;7.05;;
10586;SDS011;5341;47.606;7.576;2022-07-23T08:07:42;7.78;;;6.97;;
10586;SDS011;5341;47.606;7.576;2022-07-23T08:10:10;8.73;;;6.75;;
10586;SDS011;5341;47.606;7.576;2022-07-23T08:12:38;6.90;;;6.20;;
10586;SDS011;5341;47.606;7.576;2022-07-23T08:15:07;7.90;;;6.93;;
10586;SDS011;5341;47.606;7.576;2022-07-23T08:17:36;9.75;;;7.60;;
10586;SDS011;5341;47.606;7.576;2022-07-23T08:20:04;7.32;;;6.72;;
10586;SDS011;5341;47.606;7.576;2022-07-23T08:22:44;7.60;;;6.75;;
10586;SDS011;5341;47.606;7.576;2022-07-23T08:25:12;7.28;;;6.57;;
10586;SDS011;5341;47.606;7.576;2022-07-23T08:27:40;7.32;;;6.63;;
10586;SDS011;5341;47.606;7.576;2022-07-23T08:30:08;7.63;;;6.82;;
10586;SDS011;5341;47.606;7.576;2022-07-23T08:32:52;7.45;;;6.43;;
10586;SDS011;5341;47.606;7.576;2022-07-23T08:35:22;7.38;;;6.65;;
10586;SDS011;5341;47.606;7.576;2022-07-23T08:37:53;7.60;;;6.90;;
10586;SDS011;5341;47.606;7.576;2022-07-23T08:40:21;10.45;;;7.00;;
10586;SDS011;5341;47.606;7.576;2022-07-23T08:42:49;7.32;;;6.72;;
10586;SDS011;5341;47.606;7.576;2022-07-23T08:45:18;7.43;;;6.72;;
10586;SDS011;5341;47.606;7.576;2022-07-23T08:47:50;8.13;;;7.32;;
10586;SDS011;5341;47.606;7.576;2022-07-23T08:50:19;7.55;;;6.82;;
10586;SDS011;5341;47.606;7.576;2022-07-23T08:52:47;7.78;;;7.00;;
10586;SDS011;5341;47.606;7.576;2022-07-23T08:55:17;7.07;;;6.47;;
10586;SDS011;5341;47.606;7.576;2022-07-23T08:57:46;7.60;;;6.82;;
10586;SDS011;5341;47.606;7.576;2022-07-23T09:00:15;7.00;;;6.30;;
10586;SDS011;5341;47.606;7.576;2022-07-23T09:02:44;7.93;;;7.22;;
10586;SDS011;5341;47.606;7.576;2022-07-23T09:05:13;7.43;;;6.70;;
10586;SDS011;5341;47.606;7.576;2022-07-23T09:10:52;7.18;;;6.53;;
10586;SDS011;5341;47.606;7.576;2022-07-23T09:13:31;9.15;;;7.60;;
10586;SDS011;5341;47.606;7.576;2022-07-23T09:16:02;7.40;;;6.57;;
10586;SDS011;5341;47.606;7.576;2022-07-23T09:18:32;8.60;;;6.90;;
10586;SDS011;5341;47.606;7.576;2022-07-23T09:21:07;7.60;;;6.90;;
10586;SDS011;5341;47.606;7.576;2022-07-23T09:23:39;8.15;;;7.25;;
10586;SDS011;5341;47.606;7.576;2022-07-23T09:26:19;7.55;;;6.78;;
10586;SDS011;5341;47.606;7.576;2022-07-23T09:28:53;7.18;;;6.47;;
10586;SDS011;5341;47.606;7.576;2022-07-23T09:31:23;6.97;;;6.38;;
10586;SDS011;5341;47.606;7.576;2022-07-23T09:33:51;7.15;;;5.88;;
10586;SDS011;5341;47.606;7.576;2022-07-23T09:36:33;8.45;;;6.68;;
10586;SDS011;5341;47.606;7.576;2022-07-23T09:39:01;8.57;;;7.03;;
10586;SDS011;5341;47.606;7.576;2022-07-23T09:41:35;8.52;;;6.90;;
10586;SDS011;5341;47.606;7.576;2022-07-23T09:44:09;8.80;;;6.93;;
10586;SDS011;5341;47.606;7.576;2022-07-23T09:46:38;8.00;;;7.20;;
10586;SDS011;5341;47.606;7.576;2022-07-23T09:49:11;7.15;;;6.50;;
10586;SDS011;5341;47.606;7.576;2022-07-23T09:51:44;6.70;;;6.10;;
10586;SDS011;5341;47.606;7.576;2022-07-23T09:54:27;7.05;;;6.43;;
10586;SDS011;5341;47.606;7.576;2022-07-23T09:56:59;9.43;;;7.25;;
10586;SDS011;5341;47.606;7.576;2022-07-23T09:59:28;7.22;;;6.50;;
10586;SDS011;5341;47.606;7.576;2022-07-23T10:01:58;8.43;;;7.40;;
10586;SDS011;5341;47.606;7.576;2022-07-23T10:04:31;8.52;;;6.93;;
10586;SDS011;5341;47.606;7.576;2022-07-23T10:07:17;7.60;;;6.80;;
10586;SDS011;5341;47.606;7.576;2022-07-23T10:09:58;8.77;;;6.72;;
10586;SDS011;5341;47.606;7.576;2022-07-23T10:12:37;6.85;;;6.25;;
10586;SDS011;5341;47.606;7.576;2022-07-23T10:15:25;7.68;;;6.45;;
10586;SDS011;5341;47.606;7.576;2022-07-23T10:17:53;7.95;;;6.68;;
10586;SDS011;5341;47.606;7.576;2022-07-23T10:20:22;8.40;;;6.97;;
10586;SDS011;5341;47.606;7.576;2022-07-23T10:23:05;7.80;;;7.00;;
10586;SDS011;5341;47.606;7.576;2022-07-23T10:25:41;8.50;;;7.70;;
10586;SDS011;5341;47.606;7.576;2022-07-23T10:28:21;8.13;;;7.32;;
10586;SDS011;5341;47.606;7.576;2022-07-23T10:31:02;8.38;;;7.00;;
10586;SDS011;5341;47.606;7.576;2022-07-23T10:33:38;7.75;;;6.50;;
10586;SDS011;5341;47.606;7.576;2022-07-23T10:36:22;8.18;;;6.75;;
10586;SDS011;5341;47.606;7.576;2022-07-23T10:38:58;7.18;;;6.47;;
10586;SDS011;5341;47.606;7.576;2022-07-23T10:41:32;7.57;;;6.78;;
10586;SDS011;5341;47.606;7.576;2022-07-23T10:44:08;7.07;;;6.47;;
10586;SDS011;5341;47.606;7.576;2022-07-23T10:46:46;9.35;;;6.97;;
10586;SDS011;5341;47.606;7.576;2022-07-23T10:49:26;6.80;;;6.18;;
10586;SDS011;5341;47.606;7.576;2022-07-23T10:54:49;7.28;;;6.60;;
10586;SDS011;5341;47.606;7.576;2022-07-23T10:57:18;9.85;;;7.10;;
10586;SDS011;5341;47.606;7.576;2022-07-23T11:02:49;8.23;;;6.88;;
10586;SDS011;5341;47.606;7.576;2022-07-23T11:05:18;8.60;;;7.20;;
10586;SDS011;5341;47.606;7.576;2022-07-23T11:10:43;6.90;;;6.20;;
10586;SDS011;5341;47.606;7.576;2022-07-23T11:13:32;8.80;;;7.13;;
10586;SDS011;5341;47.606;7.576;2022-07-23T11:16:06;6.93;;;6.32;;
10586;SDS011;5341;47.606;7.576;2022-07-23T11:18:57;7.15;;;6.35;;
10586;SDS011;5341;47.606;7.576;2022-07-23T11:21:42;7.90;;;7.20;;
10586;SDS011;5341;47.606;7.576;2022-07-23T11:24:14;6.60;;;5.88;;
10586;SDS011;5341;47.606;7.576;2022-07-23T11:26:44;7.35;;;6.68;;
10586;SDS011;5341;47.606;7.576;2022-07-23T11:32:32;6.80;;;6.20;;
10586;SDS011;5341;47.606;7.576;2022-07-23T11:35:19;7.00;;;6.40;;
10586;SDS011;5341;47.606;7.576;2022-07-23T11:37:48;6.60;;;6.00;;
10586;SDS011;5341;47.606;7.576;2022-07-23T11:40:19;6.65;;;6.05;;
10586;SDS011;5341;47.606;7.576;2022-07-23T11:42:51;6.85;;;6.13;;
10586;SDS011;5341;47.606;7.576;2022-07-23T11:45:29;7.95;;;6.22;;
10586;SDS011;5341;47.606;7.576;2022-07-23T11:47:59;6.32;;;5.75;;
10586;SDS011;5341;47.606;7.576;2022-07-23T11:50:27;6.40;;;5.80;;
10586;SDS011;5341;47.606;7.576;2022-07-23T11:52:55;6.28;;;5.68;;
10586;SDS011;5341;47.606;7.576;2022-07-23T11:55:23;6.25;;;5.68;;
10586;SDS011;5341;47.606;7.576;2022-07-23T11:57:51;6.82;;;5.78;;
10586;SDS011;5341;47.606;7.576;2022-07-23T12:00:20;6.93;;;6.22;;
10586;SDS011;5341;47.606;7.576;2022-07-23T12:02:50;6.88;;;6.28;;
10586;SDS011;5341;47.606;7.576;2022-07-23T12:05:21;7.38;;;5.95;;
10586;SDS011;5341;47.606;7.576;2022-07-23T12:07:50;6.32;;;5.72;;
10586;SDS011;5341;47.606;7.576;2022-07-23T12:10:19;6.50;;;5.80;;
10586;SDS011;5341;47.606;7.576;2022-07-23T12:12:52;6.15;;;5.47;;
10586;SDS011;5341;47.606;7.576;2022-07-23T12:15:21;7.28;;;5.75;;
10586;SDS011;5341;47.606;7.576;2022-07-23T12:17:51;6.03;;;5.47;;
10586;SDS011;5341;47.606;7.576;2022-07-23T12:20:21;6.00;;;5.40;;
10586;SDS011;5341;47.606;7.576;2022-07-23T12:22:51;5.70;;;5.20;;
10586;SDS011;5341;47.606;7.576;2022-07-23T12:25:20;6.10;;;5.30;;
10586;SDS011;5341;47.606;7.576;2022-07-23T12:27:58;6.25;;;5.65;;
10586;SDS011;5341;47.606;7.576;2022-07-23T12:30:28;6.35;;;5.75;;
10586;SDS011;5341;47.606;7.576;2022-07-23T12:32:58;6.10;;;5.50;;
10586;SDS011;5341;47.606;7.576;2022-07-23T12:35:31;7.03;;;5.80;;
10586;SDS011;5341;47.606;7.576;2022-07-23T12:38:02;6.85;;;5.90;;
10586;SDS011;5341;47.606;7.576;2022-07-23T12:40:31;6.00;;;5.40;;
10586;SDS011;5341;47.606;7.576;2022-07-23T12:43:02;6.93;;;5.53;;
10586;SDS011;5341;47.606;7.576;2022-07-23T12:45:41;5.97;;;5.40;;
10586;SDS011;5341;47.606;7.576;2022-07-23T12:48:15;6.88;;;5.78;;
10586;SDS011;5341;47.606;7.576;2022-07-23T12:50:47;6.32;;;5.57;;
10586;SDS011;5341;47.606;7.576;2022-07-23T12:53:18;5.90;;;5.40;;
10586;SDS011;5341;47.606;7.576;2022-07-23T12:55:47;8.20;;;5.40;;
10586;SDS011;5341;47.606;7.576;2022-07-23T12:58:16;5.88;;;5.25;;
10586;SDS011;5341;47.606;7.576;2022-07-23T13:00:52;5.97;;;5.45;;
10586;SDS011;5341;47.606;7.576;2022-07-23T13:03:25;5.97;;;5.38;;
10586;SDS011;5341;47.606;7.576;2022-07-23T13:05:56;5.88;;;5.38;;
10586;SDS011;5341;47.606;7.576;2022-07-23T13:08:24;6.13;;;5.22;;
10586;SDS011;5341;47.606;7.576;2022-07-23T13:10:53;5.88;;;5.35;;
10586;SDS011;5341;47.606;7.576;2022-07-23T13:13:21;5.93;;;5.43;;
10586;SDS011;5341;47.606;7.576;2022-07-23T13:15:51;6.43;;;5.07;;
10586;SDS011;5341;47.606;7.576;2022-07-23T13:18:20;5.93;;;5.30;;
10586;SDS011;5341;47.606;7.576;2022-07-23T13:20:48;5.82;;;5.32;;
10586;SDS011;5341;47.606;7.576;2022-07-23T13:23:17;5.25;;;4.85;;
10586;SDS011;5341;47.606;7.576;2022-07-23T13:25:46;5.88;;;5.28;;
10586;SDS011;5341;47.606;7.576;2022-07-23T13:28:14;6.18;;;5.18;;
10586;SDS011;5341;47.606;7.576;2022-07-23T13:30:43;5.93;;;4.80;;
10586;SDS011;5341;47.606;7.576;2022-07-23T13:33:11;5.68;;;4.80;;
10586;SDS011;5341;47.606;7.576;2022-07-23T13:35:39;5.35;;;4.85;;
10586;SDS011;5341;47.606;7.576;2022-07-23T13:38:06;5.20;;;4.70;;
10586;SDS011;5341;47.606;7.576;2022-07-23T13:40:36;5.32;;;4.70;;
10586;SDS011;5341;47.606;7.576;2022-07-23T13:43:05;5.30;;;4.68;;
10586;SDS011;5341;47.606;7.576;2022-07-23T13:45:33;5.13;;;4.72;;
10586;SDS011;5341;47.606;7.576;2022-07-23T13:48:01;5.30;;;4.90;;
10586;SDS011;5341;47.606;7.576;2022-07-23T13:50:30;5.20;;;4.70;;
10586;SDS011;5341;47.606;7.576;2022-07-23T13:53:00;5.38;;;4.88;;
10586;SDS011;5341;47.606;7.576;2022-07-23T13:55:31;5.90;;;5.03;;
10586;SDS011;5341;47.606;7.576;2022-07-23T13:58:01;5.18;;;4.75;;
10586;SDS011;5341;47.606;7.576;2022-07-23T14:00:30;5.60;;;5.03;;
10586;SDS011;5341;47.606;7.576;2022-07-23T14:02:58;5.82;;;5.18;;
10586;SDS011;5341;47.606;7.576;2022-07-23T14:05:26;4.95;;;4.53;;
10586;SDS011;5341;47.606;7.576;2022-07-23T14:07:54;5.88;;;4.70;;
10586;SDS011;5341;47.606;7.576;2022-07-23T14:10:22;4.85;;;4.40;;
10586;SDS011;5341;47.606;7.576;2022-07-23T14:12:50;7.40;;;4.97;;
10586;SDS011;5341;47.606;7.576;2022-07-23T14:15:23;5.20;;;4.70;;
10586;SDS011;5341;47.606;7.576;2022-07-23T14:17:52;6.70;;;4.47;;
10586;SDS011;5341;47.606;7.576;2022-07-23T14:20:20;7.32;;;5.25;;
10586;SDS011;5341;47.606;7.576;2022-07-23T14:22:48;5.20;;;4.70;;
10586;SDS011;5341;47.606;7.576;2022-07-23T14:25:16;5.65;;;5.10;;
10586;SDS011;5341;47.606;7.576;2022-07-23T14:27:44;5.60;;;4.53;;
10586;SDS011;5341;47.606;7.576;2022-07-23T14:30:12;5.38;;;4.95;;
10586;SDS011;5341;47.606;7.576;2022-07-23T14:32:41;6.32;;;4.70;;
10586;SDS011;5341;47.606;7.576;2022-07-23T14:35:09;5.10;;;4.53;;
10586;SDS011;5341;47.606;7.576;2022-07-23T14:37:37;5.50;;;5.00;;
10586;SDS011;5341;47.606;7.576;2022-07-23T14:40:06;5.65;;;5.03;;
10586;SDS011;5341;47.606;7.576;2022-07-23T14:42:34;6.03;;;4.82;;
10586;SDS011;5341;47.606;7.576;2022-07-23T14:45:02;5.18;;;4.68;;
10586;SDS011;5341;47.606;7.576;2022-07-23T14:47:31;5.45;;;4.95;;
10586;SDS011;5341;47.606;7.576;2022-07-23T14:50:00;6.22;;;4.45;;
10586;SDS011;5341;47.606;7.576;2022-07-23T14:52:28;5.47;;;4.97;;
10586;SDS011;5341;47.606;7.576;2022-07-23T14:54:55;5.60;;;4.90;;
10586;SDS011;5341;47.606;7.576;2022-07-23T14:57:24;5.60;;;5.10;;
10586;SDS011;5341;47.606;7.576;2022-07-23T14:59:51;5.93;;;5.32;;
10586;SDS011;5341;47.606;7.576;2022-07-23T15:02:19;5.63;;;5.03;;
10586;SDS011;5341;47.606;7.576;2022-07-23T15:04:50;6.00;;;4.90;;
10586;SDS011;5341;47.606;7.576;2022-07-23T15:07:19;5.72;;;5.10;;
10586;SDS011;5341;47.606;7.576;2022-07-23T15:09:47;6.72;;;5.25;;
10586;SDS011;5341;47.606;7.576;2022-07-23T15:12:14;6.80;;;4.60;;
10586;SDS011;5341;47.606;7.576;2022-07-23T15:14:41;5.75;;;5.25;;
10586;SDS011;5341;47.606;7.576;2022-07-23T15:17:09;5.47;;;4.97;;
10586;SDS011;5341;47.606;7.576;2022-07-23T15:19:37;5.70;;;5.07;;
10586;SDS011;5341;47.606;7.576;2022-07-23T15:22:04;6.50;;;5.10;;
10586;SDS011;5341;47.606;7.576;2022-07-23T15:24:33;5.72;;;5.22;;
10586;SDS011;5341;47.606;7.576;2022-07-23T15:27:01;5.85;;;5.28;;
10586;SDS011;5341;47.606;7.576;2022-07-23T15:29:28;5.35;;;4.90;;
10586;SDS011;5341;47.606;7.576;2022-07-23T15:31:56;5.97;;;5.40;;